sensor_id;sensor_type;location;lat;lon;timestamp;temperature;humidity
50690;DHT22;54375;48.298;11.238;2022-12-26T00:17:25;4.60;95.40
50690;DHT22;54375;48.298;11.238;2022-12-26T00:37:29;5.00;94.90
50690;DHT22;54375;48.298;11.238;2022-12-26T00:57:31;5.20;94.60
50690;DHT22;54375;48.298;11.238;2022-12-26T01:17:34;5.00;94.40
50690;DHT22;54375;48.298;11.238;2022-12-26T01:37:37;4.70;94.40
50690;DHT22;54375;48.298;11.238;2022-12-26T01:57:43;4.20;94.30
50690;DHT22;54375;48.298;11.238;2022-12-26T02:17:46;3.80;94.50
50690;DHT22;54375;48.298;11.238;2022-12-26T02:37:56;3.70;94.80
50690;DHT22;54375;48.298;11.238;2022-12-26T02:58:05;3.40;95.00
50690;DHT22;54375;48.298;11.238;2022-12-26T03:18:08;3.30;95.20
50690;DHT22;54375;48.298;11.238;2022-12-26T03:38:13;3.40;95.50
50690;DHT22;54375;48.298;11.238;2022-12-26T03:58:18;3.40;95.60
50690;DHT22;54375;48.298;11.238;2022-12-26T04:18:26;3.40;95.60
50690;DHT22;54375;48.298;11.238;2022-12-26T04:38:36;3.20;95.50
50690;DHT22;54375;48.298;11.238;2022-12-26T04:58:39;3.30;96.00
50690;DHT22;54375;48.298;11.238;2022-12-26T05:18:42;4.00;96.40
50690;DHT22;54375;48.298;11.238;2022-12-26T05:38:44;5.40;95.40
50690;DHT22;54375;48.298;11.238;2022-12-26T05:58:47;7.20;91.50
50690;DHT22;54375;48.298;11.238;2022-12-26T06:18:54;7.20;91.30
50690;DHT22;54375;48.298;11.238;2022-12-26T06:38:57;7.10;91.20
50690;DHT22;54375;48.298;11.238;2022-12-26T06:59:01;7.50;90.80
50690;DHT22;54375;48.298;11.238;2022-12-26T07:19:04;7.30;91.10
50690;DHT22;54375;48.298;11.238;2022-12-26T07:39:06;7.30;90.90
50690;DHT22;54375;48.298;11.238;2022-12-26T07:59:12;7.40;90.80
50690;DHT22;54375;48.298;11.238;2022-12-26T08:19:15;7.60;90.60
50690;DHT22;54375;48.298;11.238;2022-12-26T08:39:17;8.10;89.30
50690;DHT22;54375;48.298;11.238;2022-12-26T08:59:20;8.80;86.40
50690;DHT22;54375;48.298;11.238;2022-12-26T09:19:22;9.50;84.70
50690;DHT22;54375;48.298;11.238;2022-12-26T09:39:24;10.40;82.20
50690;DHT22;54375;48.298;11.238;2022-12-26T09:59:26;11.90;77.10
50690;DHT22;54375;48.298;11.238;2022-12-26T10:19:49;13.40;69.50
50690;DHT22;54375;48.298;11.238;2022-12-26T10:39:58;14.10;66.40
50690;DHT22;54375;48.298;11.238;2022-12-26T11:00:06;14.40;63.10
50690;DHT22;54375;48.298;11.238;2022-12-26T11:20:27;14.10;65.60
50690;DHT22;54375;48.298;11.238;2022-12-26T11:40:33;13.40;68.40
50690;DHT22;54375;48.298;11.238;2022-12-26T12:00:38;12.30;73.30
50690;DHT22;54375;48.298;11.238;2022-12-26T12:20:54;11.10;85.00
50690;DHT22;54375;48.298;11.238;2022-12-26T12:41:10;10.40;90.50
50690;DHT22;54375;48.298;11.238;2022-12-26T13:01:19;10.20;91.70
50690;DHT22;54375;48.298;11.238;2022-12-26T13:21:24;10.00;92.50
50690;DHT22;54375;48.298;11.238;2022-12-26T13:41:28;9.70;92.90
50690;DHT22;54375;48.298;11.238;2022-12-26T14:01:37;9.50;93.60
50690;DHT22;54375;48.298;11.238;2022-12-26T14:21:50;9.40;94.00
50690;DHT22;54375;48.298;11.238;2022-12-26T14:42:25;9.20;94.20
50690;DHT22;54375;48.298;11.238;2022-12-26T15:02:31;9.00;93.80
50690;DHT22;54375;48.298;11.238;2022-12-26T15:22:54;8.90;94.00
50690;DHT22;54375;48.298;11.238;2022-12-26T15:43:17;8.70;93.80
50690;DHT22;54375;48.298;11.238;2022-12-26T16:03:29;8.50;94.00
50690;DHT22;54375;48.298;11.238;2022-12-26T16:23:38;8.40;93.70
50690;DHT22;54375;48.298;11.238;2022-12-26T16:43:41;8.20;93.40
50690;DHT22;54375;48.298;11.238;2022-12-26T17:03:55;8.20;92.50
50690;DHT22;54375;48.298;11.238;2022-12-26T17:24:20;8.10;92.50
50690;DHT22;54375;48.298;11.238;2022-12-26T17:44:38;8.10;92.60
50690;DHT22;54375;48.298;11.238;2022-12-26T18:04:41;8.10;92.30
50690;DHT22;54375;48.298;11.238;2022-12-26T18:24:43;8.20;91.70
50690;DHT22;54375;48.298;11.238;2022-12-26T18:44:46;8.20;91.50
50690;DHT22;54375;48.298;11.238;2022-12-26T19:04:48;8.30;91.20
50690;DHT22;54375;48.298;11.238;2022-12-26T19:24:51;8.40;91.00
50690;DHT22;54375;48.298;11.238;2022-12-26T19:44:53;8.50;90.70
50690;DHT22;54375;48.298;11.238;2022-12-26T20:04:55;8.30;91.00
50690;DHT22;54375;48.298;11.238;2022-12-26T20:24:57;8.10;90.90
50690;DHT22;54375;48.298;11.238;2022-12-26T20:45:00;8.00;90.00
50690;DHT22;54375;48.298;11.238;2022-12-26T21:05:03;7.70;86.80
50690;DHT22;54375;48.298;11.238;2022-12-26T21:25:06;6.30;93.40
50690;DHT22;54375;48.298;11.238;2022-12-26T21:45:09;6.00;94.30
50690;DHT22;54375;48.298;11.238;2022-12-26T22:05:12;6.10;94.70
50690;DHT22;54375;48.298;11.238;2022-12-26T22:25:14;6.20;94.70
50690;DHT22;54375;48.298;11.238;2022-12-26T22:45:17;6.10;94.70
50690;DHT22;54375;48.298;11.238;2022-12-26T23:05:19;6.10;94.90
50690;DHT22;54375;48.298;11.238;2022-12-26T23:25:22;6.00;95.00
50690;DHT22;54375;48.298;11.238;2022-12-26T23:45:24;6.10;95.20
